createdAt,value
2022-12-31T00:00:15.466Z,2.20
2022-12-31T00:03:03.229Z,2.17
2022-12-31T00:05:35.444Z,2.10
2022-12-31T00:08:03.188Z,2.35
2022-12-31T00:10:30.672Z,2.15
2022-12-31T00:12:57.636Z,2.22
2022-12-31T00:15:25.236Z,2.40
2022-12-31T00:17:52.145Z,2.40
2022-12-31T00:20:19.499Z,2.25
2022-12-31T00:22:46.558Z,2.30
2022-12-31T00:25:13.920Z,2.42
2022-12-31T00:27:40.850Z,2.10
2022-12-31T00:30:09.075Z,2.20
2022-12-31T00:32:36.440Z,2.15
2022-12-31T00:35:04.020Z,2.30
2022-12-31T00:37:31.019Z,1.95
2022-12-31T00:39:58.356Z,2.00
2022-12-31T00:42:25.310Z,2.03
2022-12-31T00:44:52.561Z,1.92
2022-12-31T00:47:19.467Z,1.83
2022-12-31T00:49:46.841Z,1.80
2022-12-31T00:52:15.954Z,1.50
2022-12-31T00:54:43.202Z,1.65
2022-12-31T00:57:10.138Z,2.00
2022-12-31T00:59:37.412Z,1.77
2022-12-31T01:02:04.491Z,1.67
2022-12-31T01:04:31.902Z,1.77
2022-12-31T01:06:58.960Z,1.77
2022-12-31T01:09:26.288Z,1.70
2022-12-31T01:11:53.269Z,1.70
2022-12-31T01:14:20.821Z,1.40
2022-12-31T01:16:50.923Z,1.60
2022-12-31T01:19:20.888Z,1.70
2022-12-31T01:21:48.924Z,1.75
2022-12-31T01:24:17.017Z,1.40
2022-12-31T01:26:44.362Z,1.40
2022-12-31T01:29:12.510Z,1.20
2022-12-31T01:31:40.588Z,1.20
2022-12-31T01:34:08.449Z,1.45
2022-12-31T01:36:36.796Z,1.50
2022-12-31T01:39:06.900Z,1.40
2022-12-31T01:41:41.274Z,1.63
2022-12-31T01:44:11.564Z,1.40
2022-12-31T01:47:00.989Z,1.23
2022-12-31T01:49:51.672Z,1.48
2022-12-31T01:52:27.928Z,1.40
2022-12-31T01:55:18.079Z,1.50
2022-12-31T01:57:47.690Z,1.80
2022-12-31T02:00:16.749Z,1.40
2022-12-31T02:02:44.711Z,1.42
2022-12-31T02:05:54.653Z,1.50
2022-12-31T02:08:22.105Z,1.40
2022-12-31T02:10:49.464Z,1.40
2022-12-31T02:13:16.725Z,1.40
2022-12-31T02:16:05.153Z,1.40
2022-12-31T02:18:57.184Z,1.30
2022-12-31T02:21:42.767Z,1.20
2022-12-31T02:24:22.061Z,1.48
2022-12-31T02:26:58.531Z,1.20
2022-12-31T02:30:00.469Z,1.40
2022-12-31T02:32:39.986Z,1.38
2022-12-31T02:35:14.404Z,1.13
2022-12-31T02:37:45.843Z,1.20
2022-12-31T02:40:17.829Z,1.00
2022-12-31T02:42:48.663Z,1.30
2022-12-31T02:45:26.062Z,1.10
2022-12-31T02:48:12.467Z,1.10
2022-12-31T02:51:29.493Z,1.10
2022-12-31T02:54:18.185Z,1.23
2022-12-31T02:57:06.385Z,1.50
2022-12-31T03:00:10.643Z,1.73
2022-12-31T03:02:39.983Z,1.50
2022-12-31T03:05:09.912Z,1.60
2022-12-31T03:07:37.385Z,1.23
2022-12-31T03:10:05.100Z,1.50
2022-12-31T03:12:47.026Z,1.60
2022-12-31T03:15:22.344Z,1.47
2022-12-31T03:18:00.993Z,1.23
2022-12-31T03:20:55.396Z,1.15
2022-12-31T03:23:38.830Z,1.20
2022-12-31T03:26:11.958Z,1.35
2022-12-31T03:28:41.588Z,1.20
2022-12-31T03:31:09.697Z,1.33
2022-12-31T03:33:39.646Z,1.40
2022-12-31T03:36:10.356Z,1.10
2022-12-31T03:38:37.507Z,1.15
2022-12-31T03:41:05.111Z,1.30
2022-12-31T03:43:32.411Z,1.30
2022-12-31T03:46:01.685Z,1.40
2022-12-31T03:48:28.957Z,1.20
2022-12-31T03:50:56.364Z,1.30
2022-12-31T03:53:23.354Z,1.27
2022-12-31T03:55:55.034Z,1.30
2022-12-31T03:58:22.277Z,1.50
2022-12-31T04:00:50.042Z,1.30
2022-12-31T04:03:17.227Z,1.30
2022-12-31T04:05:44.651Z,1.17
2022-12-31T04:08:11.631Z,1.33
2022-12-31T04:10:38.946Z,1.10
2022-12-31T04:13:05.900Z,1.20
2022-12-31T04:15:33.292Z,1.50
2022-12-31T04:18:00.250Z,1.40
2022-12-31T04:20:27.609Z,1.10
2022-12-31T04:22:54.580Z,1.23
2022-12-31T04:25:21.924Z,1.20
2022-12-31T04:27:48.899Z,1.30
2022-12-31T04:30:16.387Z,1.23
2022-12-31T04:32:43.518Z,1.30
2022-12-31T04:35:12.741Z,1.30
2022-12-31T04:37:40.521Z,1.30
2022-12-31T04:40:08.764Z,1.48
2022-12-31T04:42:36.589Z,1.60
2022-12-31T04:45:04.955Z,1.40
2022-12-31T04:47:32.012Z,1.45
2022-12-31T04:49:59.432Z,1.30
2022-12-31T04:52:26.456Z,1.35
2022-12-31T04:54:53.812Z,1.20
2022-12-31T04:57:20.820Z,1.30
2022-12-31T04:59:48.251Z,1.20
2022-12-31T05:02:15.445Z,1.27
2022-12-31T05:04:44.159Z,1.00
2022-12-31T05:07:11.239Z,1.00
2022-12-31T05:09:38.618Z,1.27
2022-12-31T05:12:05.981Z,1.50
2022-12-31T05:14:33.271Z,1.45
2022-12-31T05:17:01.358Z,1.50
2022-12-31T05:19:28.764Z,1.53
2022-12-31T05:22:14.663Z,1.70
2022-12-31T05:24:41.994Z,1.50
2022-12-31T05:27:08.998Z,1.83
2022-12-31T05:29:36.566Z,1.67
2022-12-31T05:32:03.508Z,1.57
2022-12-31T05:34:30.811Z,1.20
2022-12-31T05:36:57.753Z,1.50
2022-12-31T05:39:25.119Z,1.30
2022-12-31T05:41:52.640Z,1.30
2022-12-31T05:44:20.762Z,1.30
2022-12-31T05:46:47.796Z,1.20
2022-12-31T05:49:16.759Z,1.10
2022-12-31T05:51:43.879Z,1.30
2022-12-31T05:54:11.279Z,1.13
2022-12-31T05:56:38.368Z,1.40
2022-12-31T05:59:05.662Z,1.40
2022-12-31T06:01:32.720Z,1.70
2022-12-31T06:04:01.486Z,1.50
2022-12-31T06:06:28.567Z,1.70
2022-12-31T06:08:55.946Z,1.77
2022-12-31T06:11:23.287Z,1.80
2022-12-31T06:13:51.329Z,1.70
2022-12-31T06:16:18.468Z,1.83
2022-12-31T06:18:50.896Z,2.50
2022-12-31T06:21:18.902Z,2.40
2022-12-31T06:23:46.824Z,2.30
2022-12-31T06:26:13.969Z,2.53
2022-12-31T06:28:41.589Z,2.50
2022-12-31T06:31:13.594Z,2.80
2022-12-31T06:33:42.105Z,2.50
2022-12-31T06:36:12.646Z,2.60
2022-12-31T06:38:41.460Z,2.17
2022-12-31T06:41:11.015Z,2.30
2022-12-31T06:43:40.305Z,2.25
2022-12-31T06:46:10.801Z,2.17
2022-12-31T06:48:38.484Z,1.83
2022-12-31T06:51:11.872Z,1.90
2022-12-31T06:53:42.703Z,1.70
2022-12-31T06:56:15.564Z,1.70
2022-12-31T06:58:43.210Z,3.00
2022-12-31T07:01:38.192Z,3.00
2022-12-31T07:04:43.690Z,3.25
2022-12-31T07:07:18.182Z,3.45
2022-12-31T07:09:53.061Z,2.60
2022-12-31T07:12:31.702Z,2.70
2022-12-31T07:15:02.945Z,2.67
2022-12-31T07:17:32.547Z,2.30
2022-12-31T07:19:59.867Z,2.55
2022-12-31T07:22:27.384Z,3.10
2022-12-31T07:24:55.256Z,3.30
2022-12-31T07:27:33.266Z,3.67
2022-12-31T07:30:10.237Z,3.67
2022-12-31T07:32:40.108Z,3.70
2022-12-31T07:35:16.566Z,3.55
2022-12-31T07:38:05.054Z,3.30
2022-12-31T07:41:09.331Z,2.70
2022-12-31T07:44:00.647Z,2.20
2022-12-31T07:46:57.475Z,2.10
2022-12-31T07:49:26.662Z,1.83
2022-12-31T07:51:55.081Z,2.13
2022-12-31T07:54:22.745Z,2.45
2022-12-31T07:56:51.359Z,2.38
2022-12-31T07:59:39.650Z,3.40
2022-12-31T08:02:14.042Z,3.67
2022-12-31T08:04:56.836Z,3.70
2022-12-31T08:07:52.917Z,4.20
2022-12-31T08:10:27.414Z,3.78
2022-12-31T08:13:03.263Z,3.63
2022-12-31T08:15:30.972Z,3.60
2022-12-31T08:17:58.471Z,3.63
2022-12-31T08:20:25.980Z,3.20
2022-12-31T08:22:59.323Z,3.00
2022-12-31T08:25:45.899Z,3.53
2022-12-31T08:28:35.780Z,3.53
2022-12-31T08:31:10.854Z,3.40
2022-12-31T08:34:06.352Z,4.05
2022-12-31T08:36:45.681Z,3.72
2022-12-31T08:39:34.208Z,4.20
2022-12-31T08:42:05.235Z,3.42
2022-12-31T08:44:52.576Z,4.30
2022-12-31T08:47:41.456Z,3.60
2022-12-31T08:50:15.619Z,3.83
2022-12-31T08:52:42.836Z,4.43
2022-12-31T08:55:19.573Z,3.25
2022-12-31T08:58:03.450Z,4.00
2022-12-31T09:00:31.604Z,3.90
2022-12-31T09:03:33.974Z,4.00
2022-12-31T09:06:10.293Z,4.47
2022-12-31T09:08:56.075Z,4.53
2022-12-31T09:11:31.047Z,3.93
2022-12-31T09:14:23.328Z,3.90
2022-12-31T09:17:05.222Z,3.67
2022-12-31T09:19:32.212Z,3.55
2022-12-31T09:21:59.735Z,3.05
2022-12-31T09:24:27.202Z,2.57
2022-12-31T09:27:22.452Z,2.80
2022-12-31T09:30:07.098Z,2.10
2022-12-31T09:33:00.523Z,2.20
2022-12-31T09:35:49.833Z,3.13
2022-12-31T09:38:22.785Z,4.10
2022-12-31T09:41:08.213Z,4.53
2022-12-31T09:44:00.699Z,3.13
2022-12-31T09:46:31.272Z,3.05
2022-12-31T09:49:30.846Z,1.90
2022-12-31T09:52:00.878Z,1.30
2022-12-31T09:54:40.344Z,1.55
2022-12-31T09:57:20.663Z,1.90
2022-12-31T09:59:51.088Z,2.13
2022-12-31T10:02:46.208Z,1.75
2022-12-31T10:05:51.047Z,1.30
2022-12-31T10:08:49.893Z,1.02
2022-12-31T10:11:33.843Z,1.38
2022-12-31T10:14:19.454Z,1.10
2022-12-31T10:17:07.123Z,1.27
2022-12-31T10:19:51.002Z,1.20
2022-12-31T10:22:52.990Z,1.40
2022-12-31T10:25:39.068Z,1.20
2022-12-31T10:28:31.282Z,1.00
2022-12-31T10:31:01.357Z,1.20
2022-12-31T10:33:41.583Z,1.00
2022-12-31T10:36:15.715Z,0.88
2022-12-31T10:39:03.035Z,1.00
2022-12-31T10:41:40.918Z,1.05
2022-12-31T10:44:26.548Z,1.30
2022-12-31T10:47:04.442Z,0.80
2022-12-31T10:50:08.823Z,1.30
2022-12-31T10:52:54.407Z,0.98
2022-12-31T10:55:46.952Z,1.80
2022-12-31T10:58:50.975Z,1.58
2022-12-31T11:01:34.654Z,1.50
2022-12-31T11:04:34.715Z,1.10
2022-12-31T11:07:14.221Z,1.92
2022-12-31T11:09:47.265Z,1.30
2022-12-31T11:12:23.309Z,0.90
2022-12-31T11:15:05.003Z,0.80
2022-12-31T11:17:53.676Z,1.00
2022-12-31T11:20:45.141Z,5.45
2022-12-31T11:24:08.352Z,1.90
2022-12-31T11:26:51.402Z,9.43
2022-12-31T11:29:38.387Z,2.67
2022-12-31T11:32:18.247Z,1.27
2022-12-31T11:34:48.518Z,1.80
2022-12-31T11:37:29.099Z,3.05
2022-12-31T11:40:13.428Z,1.50
2022-12-31T11:42:40.425Z,1.10
2022-12-31T11:45:10.728Z,1.20
2022-12-31T11:48:28.487Z,0.90
2022-12-31T11:50:59.268Z,1.00
2022-12-31T11:54:03.161Z,1.92
2022-12-31T11:56:41.836Z,1.23
2022-12-31T11:59:18.983Z,2.50
2022-12-31T12:02:00.850Z,2.60
2022-12-31T12:04:45.299Z,2.30
2022-12-31T12:07:16.804Z,1.20
2022-12-31T12:09:45.682Z,1.17
2022-12-31T12:12:13.451Z,1.00
2022-12-31T12:14:43.488Z,1.20
2022-12-31T12:17:16.127Z,3.47
2022-12-31T12:19:54.100Z,2.15
2022-12-31T12:22:24.103Z,3.67
2022-12-31T12:24:56.447Z,3.17
2022-12-31T12:27:29.072Z,2.13
2022-12-31T12:29:56.148Z,2.10
2022-12-31T12:32:26.575Z,1.67
2022-12-31T12:34:54.048Z,1.40
2022-12-31T12:37:24.290Z,2.40
2022-12-31T12:40:02.690Z,1.60
2022-12-31T12:42:30.812Z,1.20
2022-12-31T12:45:14.902Z,1.20
2022-12-31T12:47:47.715Z,1.60
2022-12-31T12:50:20.581Z,1.33
2022-12-31T12:53:11.959Z,1.33
2022-12-31T12:55:57.131Z,1.60
2022-12-31T12:58:30.527Z,1.50
2022-12-31T13:01:16.544Z,1.30
2022-12-31T13:04:37.133Z,1.20
2022-12-31T13:07:25.265Z,1.00
2022-12-31T13:09:55.554Z,1.10
2022-12-31T13:13:05.216Z,1.00
2022-12-31T13:15:54.481Z,1.33
2022-12-31T13:18:51.985Z,1.00
2022-12-31T13:21:32.486Z,1.00
2022-12-31T13:24:13.754Z,0.85
2022-12-31T13:26:59.964Z,1.13
2022-12-31T13:29:31.610Z,1.30
2022-12-31T13:32:02.023Z,0.90
2022-12-31T13:34:32.862Z,1.20
2022-12-31T13:37:05.765Z,1.15
2022-12-31T13:39:38.983Z,1.20
2022-12-31T13:42:16.548Z,1.00
2022-12-31T13:45:09.426Z,1.10
2022-12-31T13:47:52.495Z,1.00
2022-12-31T13:50:31.561Z,1.10
2022-12-31T13:53:07.183Z,1.00
2022-12-31T13:55:40.658Z,1.00
2022-12-31T13:58:35.570Z,1.00
2022-12-31T14:01:10.647Z,0.80
2022-12-31T14:03:59.215Z,0.90
2022-12-31T14:06:54.952Z,0.82
2022-12-31T14:09:28.089Z,0.90
2022-12-31T14:11:57.995Z,0.90
2022-12-31T14:14:28.408Z,0.80
2022-12-31T14:17:27.538Z,0.90
2022-12-31T14:20:26.141Z,0.90
2022-12-31T14:23:08.451Z,0.80
2022-12-31T14:25:44.312Z,0.80
2022-12-31T14:28:19.939Z,0.88
2022-12-31T14:30:52.585Z,0.80
2022-12-31T14:33:39.982Z,0.80
2022-12-31T14:36:11.131Z,0.80
2022-12-31T14:38:57.794Z,0.93
2022-12-31T14:41:47.062Z,1.00
2022-12-31T14:44:32.972Z,0.80
2022-12-31T14:47:13.724Z,1.05
2022-12-31T14:49:52.986Z,1.00
2022-12-31T14:52:27.674Z,0.90
2022-12-31T14:55:00.038Z,1.00
2022-12-31T14:57:54.429Z,3.88
2022-12-31T15:00:33.540Z,3.80
2022-12-31T15:03:14.903Z,2.80
2022-12-31T15:06:08.921Z,5.82
2022-12-31T15:08:48.515Z,3.70
2022-12-31T15:11:27.455Z,3.47
2022-12-31T15:14:15.446Z,3.00
2022-12-31T15:16:53.447Z,3.80
2022-12-31T15:19:39.423Z,2.97
2022-12-31T15:22:27.007Z,2.60
2022-12-31T15:24:54.450Z,2.97
2022-12-31T15:27:38.629Z,2.63
2022-12-31T15:30:07.238Z,2.30
2022-12-31T15:32:40.467Z,2.65
2022-12-31T15:35:23.156Z,3.30
2022-12-31T15:38:11.157Z,2.65
2022-12-31T15:40:52.104Z,3.05
2022-12-31T15:43:25.140Z,3.43
2022-12-31T15:45:55.094Z,3.13
2022-12-31T15:48:44.273Z,2.90
2022-12-31T15:51:18.313Z,3.50
2022-12-31T15:53:53.251Z,3.50
2022-12-31T15:56:39.397Z,5.73
2022-12-31T15:59:12.496Z,21.77
2022-12-31T16:01:42.247Z,15.82
2022-12-31T16:04:26.347Z,10.32
2022-12-31T16:06:54.138Z,7.70
2022-12-31T16:09:27.514Z,6.80
2022-12-31T16:11:57.179Z,6.15
2022-12-31T16:14:30.023Z,5.20
2022-12-31T16:16:59.096Z,6.63
2022-12-31T16:19:56.210Z,6.85
2022-12-31T16:22:38.311Z,20.60
2022-12-31T16:25:29.749Z,14.00
2022-12-31T16:27:55.966Z,6.18
2022-12-31T16:30:29.075Z,4.63
2022-12-31T16:33:01.659Z,4.45
2022-12-31T16:35:31.443Z,4.23
2022-12-31T16:38:17.023Z,4.20
2022-12-31T16:41:06.439Z,3.90
2022-12-31T16:43:39.280Z,3.30
2022-12-31T16:46:11.604Z,4.40
2022-12-31T16:48:39.356Z,3.70
2022-12-31T16:51:06.906Z,2.97
2022-12-31T16:53:38.052Z,4.03
2022-12-31T16:56:11.576Z,6.30
2022-12-31T16:58:45.281Z,5.32
2022-12-31T17:01:18.683Z,7.00
2022-12-31T17:03:52.614Z,7.75
2022-12-31T17:06:21.268Z,7.38
2022-12-31T17:09:04.634Z,8.13
2022-12-31T17:11:35.510Z,9.88
2022-12-31T17:14:05.812Z,7.00
2022-12-31T17:16:35.664Z,6.07
2022-12-31T17:19:03.626Z,4.70
2022-12-31T17:21:32.317Z,3.40
2022-12-31T17:24:06.796Z,3.50
2022-12-31T17:26:38.345Z,5.20
2022-12-31T17:29:06.175Z,6.28
2022-12-31T17:31:39.149Z,6.00
2022-12-31T17:34:12.649Z,8.73
2022-12-31T17:37:14.303Z,10.73
2022-12-31T17:40:10.854Z,15.20
2022-12-31T17:42:46.403Z,14.40
2022-12-31T17:45:21.337Z,16.92
2022-12-31T17:47:55.775Z,16.13
2022-12-31T17:50:26.088Z,20.38
2022-12-31T17:53:13.703Z,39.73
2022-12-31T17:55:42.370Z,37.50
2022-12-31T17:58:18.422Z,31.15
2022-12-31T18:00:46.127Z,25.90
2022-12-31T18:03:13.139Z,21.85
2022-12-31T18:05:40.805Z,33.83
2022-12-31T18:08:07.758Z,33.78
2022-12-31T18:10:37.578Z,39.28
2022-12-31T18:13:14.311Z,30.08
2022-12-31T18:15:41.698Z,22.35
2022-12-31T18:18:26.505Z,12.70
2022-12-31T18:20:59.901Z,6.32
2022-12-31T18:23:28.290Z,6.15
2022-12-31T18:25:55.591Z,5.78
2022-12-31T18:28:23.288Z,7.05
2022-12-31T18:30:51.700Z,8.77
2022-12-31T18:33:22.562Z,12.68
2022-12-31T18:36:08.317Z,12.10
2022-12-31T18:38:36.143Z,11.10
2022-12-31T18:41:04.193Z,8.93
2022-12-31T18:43:31.445Z,7.70
2022-12-31T18:45:59.213Z,5.90
2022-12-31T18:48:26.405Z,4.22
2022-12-31T18:50:53.772Z,4.80
2022-12-31T18:53:23.339Z,3.97
2022-12-31T18:55:55.787Z,4.20
2022-12-31T18:58:23.392Z,4.13
2022-12-31T19:00:51.958Z,8.30
2022-12-31T19:03:22.911Z,12.13
2022-12-31T19:05:52.046Z,20.58
2022-12-31T19:08:20.917Z,17.97
2022-12-31T19:10:49.913Z,9.18
2022-12-31T19:13:19.105Z,6.88
2022-12-31T19:15:51.649Z,5.28
2022-12-31T19:18:19.406Z,5.10
2022-12-31T19:20:47.075Z,4.63
2022-12-31T19:23:20.578Z,4.95
2022-12-31T19:25:49.624Z,9.73
2022-12-31T19:28:23.070Z,10.80
2022-12-31T19:30:51.129Z,12.02
2022-12-31T19:33:18.959Z,10.00
2022-12-31T19:35:46.658Z,11.30
2022-12-31T19:38:25.454Z,11.63
2022-12-31T19:40:54.026Z,9.70
2022-12-31T19:43:22.852Z,7.80
2022-12-31T19:45:51.398Z,5.40
2022-12-31T19:48:30.300Z,5.40
2022-12-31T19:51:00.033Z,12.02
2022-12-31T19:53:28.032Z,9.88
2022-12-31T19:55:55.436Z,12.88
2022-12-31T19:58:25.725Z,10.05
2022-12-31T20:01:02.335Z,17.40
2022-12-31T20:03:32.681Z,18.50
2022-12-31T20:06:07.149Z,9.57
2022-12-31T20:08:35.744Z,36.35
2022-12-31T20:11:18.710Z,20.55
2022-12-31T20:13:46.513Z,13.13
2022-12-31T20:16:17.119Z,11.15
2022-12-31T20:18:46.098Z,15.40
2022-12-31T20:21:22.738Z,11.50
2022-12-31T20:23:51.450Z,12.27
2022-12-31T20:26:19.767Z,29.37
2022-12-31T20:28:47.154Z,21.70
2022-12-31T20:31:17.169Z,15.55
2022-12-31T20:33:45.012Z,12.30
2022-12-31T20:36:14.901Z,16.35
2022-12-31T20:38:42.359Z,17.70
2022-12-31T20:41:12.943Z,19.30
2022-12-31T20:43:40.254Z,17.60
2022-12-31T20:46:15.802Z,16.42
2022-12-31T20:48:44.596Z,16.83
2022-12-31T20:51:13.815Z,17.10
2022-12-31T20:53:45.310Z,29.50
2022-12-31T20:56:12.572Z,38.95
2022-12-31T20:58:39.650Z,41.42
2022-12-31T21:01:09.232Z,28.88
2022-12-31T21:06:28.986Z,20.67
2022-12-31T21:08:57.461Z,15.07
2022-12-31T21:11:43.474Z,12.15
2022-12-31T21:14:10.540Z,12.77
2022-12-31T21:16:38.159Z,15.53
2022-12-31T21:19:05.699Z,14.27
2022-12-31T21:21:33.252Z,11.23
2022-12-31T21:24:00.302Z,10.73
2022-12-31T21:26:28.725Z,10.73
2022-12-31T21:28:55.751Z,7.87
2022-12-31T21:31:23.137Z,7.50
2022-12-31T21:33:51.374Z,10.35
2022-12-31T21:36:18.706Z,11.63
2022-12-31T21:38:56.640Z,12.30
2022-12-31T21:41:42.490Z,10.63
2022-12-31T21:44:09.601Z,21.80
2022-12-31T21:46:36.941Z,20.48
2022-12-31T21:49:04.053Z,16.85
2022-12-31T21:51:31.402Z,19.90
2022-12-31T21:53:58.588Z,25.67
2022-12-31T21:56:25.992Z,21.98
2022-12-31T21:59:16.715Z,17.38
2022-12-31T22:02:05.510Z,14.38
2022-12-31T22:07:19.979Z,12.57
2022-12-31T22:09:46.978Z,13.60
2022-12-31T22:12:14.339Z,15.65
2022-12-31T22:15:14.299Z,26.25
2022-12-31T22:17:28.731Z,24.25
2022-12-31T22:22:43.099Z,20.17
2022-12-31T22:25:10.171Z,21.48
2022-12-31T22:27:37.539Z,15.70
2022-12-31T22:30:05.496Z,11.50
2022-12-31T22:32:33.058Z,9.97
2022-12-31T22:35:00.109Z,6.60
2022-12-31T22:37:55.754Z,8.65
2022-12-31T22:40:15.053Z,21.08
2022-12-31T22:42:42.883Z,16.92
2022-12-31T22:45:10.825Z,16.27
2022-12-31T22:47:38.367Z,17.02
2022-12-31T22:50:06.026Z,12.85
2022-12-31T22:52:33.400Z,11.98
2022-12-31T22:55:00.411Z,13.38
2022-12-31T22:57:27.838Z,14.73
2022-12-31T22:59:55.039Z,33.08
2022-12-31T23:02:22.542Z,24.98
2022-12-31T23:04:49.643Z,54.30
2022-12-31T23:07:17.100Z,31.42
2022-12-31T23:10:02.659Z,61.80
2022-12-31T23:12:30.071Z,80.20
2022-12-31T23:15:15.709Z,84.47
2022-12-31T23:18:02.053Z,102.78
2022-12-31T23:20:47.901Z,401.80
2022-12-31T23:23:16.651Z,520.43
2022-12-31T23:25:46.727Z,517.00
2022-12-31T23:28:16.739Z,304.88
2022-12-31T23:30:44.239Z,263.23
2022-12-31T23:33:23.001Z,267.35
2022-12-31T23:35:50.314Z,318.00
2022-12-31T23:38:18.413Z,294.73
2022-12-31T23:40:45.493Z,443.92
2022-12-31T23:43:20.533Z,469.80
2022-12-31T23:45:49.497Z,344.80
2022-12-31T23:48:16.753Z,240.97
2022-12-31T23:50:49.159Z,324.33
2022-12-31T23:53:18.267Z,318.48
2022-12-31T23:55:45.388Z,259.95
2022-12-31T23:58:12.651Z,253.85
